CFN2 weather

CLOSED Fort Nelson (Mile 301) Heliport
Fort Nelson, British Columbia, Canada

Public forecast

Using degrees Celsius for public forecast. Weather courtesy of forecast.io.

Closest aviation weather report (METAR) to Fort Nelson (Mile 301) Heliport

Closest report is Fort Nelson Airport, 4.5 nm (8.3 km) ENE. Retrieved 2019/10/16 16:00 UTC (5 minutes ago):

CYYE 161600Z 00000KT 10SM OVC008 M01/M02 A2955 RMK SC8 SLP029

Closest aviation forecast (TAF) to Fort Nelson (Mile 301) Heliport

Closest forecast is Fort Nelson Airport, 4.5 nm (8.3 km) ENE. Retrieved 2019/10/16 13:42 UTC (2 hours ago):

TAF CYYE 161239Z 1613/1701 34005KT P6SM OVC010 TEMPO 1613/1701 4SM BR OVC006 RMK NXT FCST BY 161900Z